createdAt,value
2022-08-11T00:01:53.477Z,19.99
2022-08-11T00:04:23.858Z,19.99
2022-08-11T00:06:51.770Z,19.99
2022-08-11T00:09:21.665Z,19.99
2022-08-11T00:11:52.775Z,19.97
2022-08-11T00:14:37.216Z,19.94
2022-08-11T00:17:08.127Z,19.95
2022-08-11T00:20:13.769Z,19.94
2022-08-11T00:22:45.736Z,19.95
2022-08-11T00:25:18.510Z,19.94
2022-08-11T00:27:46.433Z,19.92
2022-08-11T00:30:14.374Z,19.89
2022-08-11T00:32:43.719Z,19.88
2022-08-11T00:35:52.471Z,19.85
2022-08-11T00:38:01.515Z,19.82
2022-08-11T00:40:52.271Z,19.80
2022-08-11T00:43:30.629Z,19.76
2022-08-11T00:46:08.658Z,19.74
2022-08-11T00:49:06.412Z,19.75
2022-08-11T00:52:04.550Z,19.72
2022-08-11T00:54:38.383Z,19.66
2022-08-11T00:57:37.006Z,19.65
2022-08-11T01:00:20.046Z,19.67
2022-08-11T01:03:04.313Z,19.66
2022-08-11T01:05:45.723Z,19.65
2022-08-11T01:08:14.535Z,19.66
2022-08-11T01:10:55.878Z,19.63
2022-08-11T01:13:40.653Z,19.62
2022-08-11T01:16:46.961Z,19.61
2022-08-11T01:19:25.788Z,19.59
2022-08-11T01:22:19.944Z,19.57
2022-08-11T01:25:04.196Z,19.53
2022-08-11T01:27:48.410Z,19.54
2022-08-11T01:30:20.538Z,19.52
2022-08-11T01:33:03.753Z,19.53
2022-08-11T01:35:48.136Z,19.52
2022-08-11T01:38:26.875Z,19.52
2022-08-11T01:41:52.494Z,19.50
2022-08-11T01:44:40.480Z,19.45
2022-08-11T01:47:53.489Z,19.46
2022-08-11T01:50:39.591Z,19.42
2022-08-11T01:53:24.119Z,19.36
2022-08-11T01:56:13.290Z,19.35
2022-08-11T01:59:16.516Z,19.37
2022-08-11T02:02:04.814Z,19.37
2022-08-11T02:04:54.251Z,19.36
2022-08-11T02:07:32.090Z,19.37
2022-08-11T02:10:38.776Z,19.33
2022-08-11T02:13:44.711Z,19.31
2022-08-11T02:16:37.677Z,19.28
2022-08-11T02:19:34.596Z,19.26
2022-08-11T02:22:27.064Z,19.22
2022-08-11T02:24:59.837Z,19.13
2022-08-11T02:27:36.955Z,19.17
2022-08-11T02:30:10.486Z,19.17
2022-08-11T02:33:24.219Z,19.16
2022-08-11T02:36:19.068Z,19.14
2022-08-11T02:39:03.139Z,19.12
2022-08-11T02:42:00.050Z,19.12
2022-08-11T02:44:51.015Z,19.09
2022-08-11T02:47:41.566Z,19.10
2022-08-11T02:50:22.920Z,19.07
2022-08-11T02:53:07.761Z,19.07
2022-08-11T02:56:08.089Z,19.01
2022-08-11T02:59:06.264Z,19.00
2022-08-11T03:01:45.111Z,18.99
2022-08-11T03:04:22.095Z,18.97
2022-08-11T03:06:58.652Z,18.98
2022-08-11T03:09:41.926Z,18.95
2022-08-11T03:12:36.849Z,18.89
2022-08-11T03:15:21.713Z,18.87
2022-08-11T03:18:06.115Z,18.86
2022-08-11T03:20:41.085Z,18.86
2022-08-11T03:23:33.084Z,18.89
2022-08-11T03:26:07.173Z,18.87
2022-08-11T03:28:52.965Z,18.87
2022-08-11T03:31:41.939Z,18.84
2022-08-11T03:34:17.721Z,18.83
2022-08-11T03:37:16.485Z,18.82
2022-08-11T03:40:40.827Z,18.81
2022-08-11T03:43:22.437Z,18.76
2022-08-11T03:46:03.286Z,18.74
2022-08-11T03:48:38.948Z,18.74
2022-08-11T03:51:14.170Z,18.72
2022-08-11T03:54:05.183Z,18.74
2022-08-11T03:56:46.304Z,18.72
2022-08-11T03:59:50.616Z,18.73
2022-08-11T04:02:25.737Z,18.69
2022-08-11T04:05:00.898Z,18.67
2022-08-11T04:07:45.410Z,18.69
2022-08-11T04:10:47.212Z,18.66
2022-08-11T04:13:19.267Z,18.64
2022-08-11T04:16:24.399Z,18.62
2022-08-11T04:19:10.508Z,18.63
2022-08-11T04:21:55.603Z,18.61
2022-08-11T04:24:52.980Z,18.61
2022-08-11T04:27:36.968Z,18.58
2022-08-11T04:30:09.095Z,18.58
2022-08-11T04:32:56.593Z,18.56
2022-08-11T04:36:01.241Z,18.55
2022-08-11T04:38:49.042Z,18.50
2022-08-11T04:41:33.368Z,18.44
2022-08-11T04:44:39.411Z,18.47
2022-08-11T04:47:11.197Z,18.41
2022-08-11T04:50:40.861Z,18.37
2022-08-11T04:53:28.302Z,18.35
2022-08-11T04:56:36.604Z,18.36
2022-08-11T04:59:30.546Z,18.34
2022-08-11T05:02:23.306Z,18.34
2022-08-11T05:05:33.053Z,18.33
2022-08-11T05:08:28.781Z,18.30
2022-08-11T05:11:13.476Z,18.28
2022-08-11T05:14:07.525Z,18.23
2022-08-11T05:17:01.346Z,18.26
2022-08-11T05:19:46.259Z,18.27
2022-08-11T05:22:32.445Z,18.24
2022-08-11T05:26:46.149Z,18.27
2022-08-11T05:28:38.924Z,18.29
2022-08-11T05:31:32.038Z,18.26
2022-08-11T05:34:27.880Z,18.29
2022-08-11T05:37:25.292Z,18.28
2022-08-11T05:40:13.791Z,18.34
2022-08-11T05:43:08.165Z,18.30
2022-08-11T05:46:02.503Z,18.34
2022-08-11T05:48:54.219Z,18.33
2022-08-11T05:51:52.492Z,18.35
2022-08-11T05:54:42.909Z,18.36
2022-08-11T05:57:49.054Z,18.37
2022-08-11T06:00:14.306Z,18.38
2022-08-11T06:02:42.933Z,18.41
2022-08-11T06:05:11.038Z,18.42
2022-08-11T06:07:48.810Z,18.40
2022-08-11T06:10:46.296Z,18.41
2022-08-11T06:13:16.921Z,18.42
2022-08-11T06:15:48.495Z,18.41
2022-08-11T06:18:15.631Z,18.42
2022-08-11T06:20:57.487Z,18.43
2022-08-11T06:23:30.439Z,18.44
2022-08-11T06:25:58.478Z,18.39
2022-08-11T06:28:33.011Z,18.33
2022-08-11T06:31:01.703Z,18.32
2022-08-11T06:33:36.077Z,18.33
2022-08-11T06:36:06.116Z,18.18
2022-08-11T06:39:17.944Z,18.28
2022-08-11T06:41:49.270Z,18.36
2022-08-11T06:44:32.153Z,18.41
2022-08-11T06:47:08.135Z,18.43
2022-08-11T06:50:04.198Z,18.44
2022-08-11T06:52:36.547Z,18.48
2022-08-11T06:55:57.257Z,18.48
2022-08-11T06:58:49.317Z,18.49
2022-08-11T07:01:48.601Z,18.52
2022-08-11T07:04:39.142Z,18.51
2022-08-11T07:07:47.219Z,18.53
2022-08-11T07:10:47.173Z,18.54
2022-08-11T07:13:44.783Z,18.53
2022-08-11T07:16:18.719Z,18.50
2022-08-11T07:19:18.999Z,18.51
2022-08-11T07:22:05.818Z,18.54
2022-08-11T07:25:01.771Z,18.57
2022-08-11T07:28:01.478Z,18.57
2022-08-11T07:30:28.452Z,18.56
2022-08-11T07:32:57.419Z,18.57
2022-08-11T07:35:49.293Z,18.58
2022-08-11T07:38:25.378Z,18.58
2022-08-11T07:40:52.365Z,18.55
2022-08-11T07:43:18.913Z,18.57
2022-08-11T07:46:04.486Z,18.58
2022-08-11T07:48:49.817Z,18.59
2022-08-11T07:51:40.781Z,18.62
2022-08-11T07:54:16.410Z,18.62
2022-08-11T07:56:55.122Z,18.63
2022-08-11T07:59:58.596Z,18.61
2022-08-11T08:02:58.440Z,18.64
2022-08-11T08:05:43.920Z,18.64
2022-08-11T08:08:29.358Z,18.66
2022-08-11T08:11:15.164Z,18.65
2022-08-11T08:14:01.726Z,18.68
2022-08-11T08:16:49.263Z,18.66
2022-08-11T08:19:18.422Z,18.67
2022-08-11T08:21:45.919Z,18.67
2022-08-11T08:24:12.495Z,18.65
2022-08-11T08:26:59.777Z,18.63
2022-08-11T08:29:51.459Z,18.67
2022-08-11T08:32:18.917Z,18.65
2022-08-11T08:34:46.497Z,18.64
2022-08-11T08:37:15.846Z,18.67
2022-08-11T08:39:59.956Z,18.66
2022-08-11T08:42:29.403Z,18.68
2022-08-11T08:45:05.144Z,18.69
2022-08-11T08:47:42.123Z,18.68
2022-08-11T08:50:18.698Z,18.70
2022-08-11T08:53:00.220Z,18.71
2022-08-11T08:55:29.937Z,18.72
2022-08-11T08:58:00.029Z,18.69
2022-08-11T09:00:39.140Z,18.68
2022-08-11T09:03:36.169Z,18.66
2022-08-11T09:05:55.373Z,18.69
2022-08-11T09:08:22.998Z,18.68
2022-08-11T09:11:13.632Z,18.66
2022-08-11T09:13:43.731Z,18.68
2022-08-11T09:16:11.379Z,18.69
2022-08-11T09:18:39.354Z,18.69
2022-08-11T09:21:06.918Z,18.70
2022-08-11T09:24:11.461Z,18.72
2022-08-11T09:26:48.101Z,18.71
2022-08-11T09:29:14.581Z,18.71
2022-08-11T09:31:41.645Z,18.72
2022-08-11T09:34:10.945Z,18.74
2022-08-11T09:36:58.927Z,18.77
2022-08-11T09:39:45.644Z,18.78
2022-08-11T09:42:16.648Z,18.80
2022-08-11T09:44:50.403Z,18.85
2022-08-11T09:47:22.483Z,18.85
2022-08-11T09:49:52.190Z,18.85
2022-08-11T09:52:20.351Z,18.86
2022-08-11T09:54:48.459Z,18.85
2022-08-11T09:57:37.436Z,18.85
2022-08-11T10:00:12.743Z,18.86
2022-08-11T10:02:43.367Z,18.86
2022-08-11T10:05:32.969Z,18.86
2022-08-11T10:08:00.723Z,18.87
2022-08-11T10:10:27.973Z,18.88
2022-08-11T10:13:03.614Z,18.89
2022-08-11T10:15:33.998Z,18.89
2022-08-11T10:18:31.936Z,18.92
2022-08-11T10:21:14.858Z,18.93
2022-08-11T10:24:06.034Z,18.97
2022-08-11T10:26:51.752Z,18.99
2022-08-11T10:29:49.539Z,19.05
2022-08-11T10:32:57.493Z,19.06
2022-08-11T10:35:27.546Z,19.07
2022-08-11T10:38:06.315Z,19.08
2022-08-11T10:40:38.463Z,19.08
2022-08-11T10:43:06.956Z,19.10
2022-08-11T10:45:54.416Z,19.13
2022-08-11T10:48:23.379Z,19.13
2022-08-11T10:51:09.323Z,19.15
2022-08-11T10:53:56.836Z,19.15
2022-08-11T10:56:42.132Z,19.17
2022-08-11T10:59:09.588Z,19.21
2022-08-11T11:01:41.862Z,19.26
2022-08-11T11:04:20.489Z,19.29
2022-08-11T11:07:13.169Z,19.33
2022-08-11T11:10:08.758Z,19.37
2022-08-11T11:13:04.068Z,19.39
2022-08-11T11:15:50.572Z,19.43
2022-08-11T11:18:22.845Z,19.43
2022-08-11T11:21:05.451Z,19.46
2022-08-11T11:23:46.627Z,19.50
2022-08-11T11:26:40.524Z,19.53
2022-08-11T11:29:36.317Z,19.54
2022-08-11T11:32:08.348Z,19.60
2022-08-11T11:34:34.702Z,19.60
2022-08-11T11:37:01.473Z,19.63
2022-08-11T11:39:30.582Z,19.65
2022-08-11T11:42:03.645Z,19.70
2022-08-11T11:44:30.995Z,19.71
2022-08-11T11:46:59.166Z,19.76
2022-08-11T11:49:28.727Z,19.80
2022-08-11T11:51:57.176Z,19.80
2022-08-11T11:54:28.116Z,19.84
2022-08-11T11:56:56.945Z,19.85
2022-08-11T11:59:45.950Z,19.88
2022-08-11T12:02:15.298Z,19.89
2022-08-11T12:04:44.482Z,19.92
2022-08-11T12:07:30.125Z,19.95
2022-08-11T12:09:57.883Z,19.98
2022-08-11T12:12:43.479Z,19.99
2022-08-11T12:15:10.986Z,19.99
2022-08-11T12:17:38.041Z,19.98
2022-08-11T12:20:05.188Z,20.00
2022-08-11T12:23:11.732Z,20.00
2022-08-11T12:26:25.226Z,20.01
2022-08-11T12:28:49.216Z,20.00
2022-08-11T12:31:15.640Z,20.00
2022-08-11T12:33:43.310Z,20.02
2022-08-11T12:36:15.853Z,20.01
2022-08-11T12:38:46.389Z,20.04
2022-08-11T12:41:39.006Z,20.05
2022-08-11T12:44:27.229Z,20.09
2022-08-11T12:46:55.724Z,20.07
2022-08-11T12:49:45.393Z,20.07
2022-08-11T12:52:20.536Z,20.07
2022-08-11T12:55:34.196Z,20.05
2022-08-11T12:58:16.559Z,20.04
2022-08-11T13:01:05.915Z,20.05
2022-08-11T13:03:57.984Z,20.06
2022-08-11T13:06:25.125Z,20.11
2022-08-11T13:08:52.530Z,20.14
2022-08-11T13:11:56.428Z,20.15
2022-08-11T13:14:26.599Z,20.16
2022-08-11T13:17:12.401Z,20.21
2022-08-11T13:19:42.064Z,20.25
2022-08-11T13:22:09.688Z,20.27
2022-08-11T13:24:36.436Z,20.29
2022-08-11T13:27:03.687Z,20.30
2022-08-11T13:29:30.373Z,20.29
2022-08-11T13:31:59.284Z,20.30
2022-08-11T13:34:28.023Z,20.32
2022-08-11T13:36:56.582Z,20.34
2022-08-11T13:39:26.040Z,20.37
2022-08-11T13:41:58.740Z,20.40
2022-08-11T13:44:27.689Z,20.44
2022-08-11T13:46:57.855Z,20.44
2022-08-11T13:49:25.415Z,20.45
2022-08-11T13:51:52.873Z,20.47
2022-08-11T13:54:23.231Z,20.49
2022-08-11T13:56:54.540Z,20.50
2022-08-11T13:59:29.766Z,20.54
2022-08-11T14:02:21.755Z,20.56
2022-08-11T14:04:55.662Z,20.57
2022-08-11T14:07:26.575Z,20.60
2022-08-11T14:09:58.858Z,20.66
2022-08-11T14:12:49.733Z,20.77
2022-08-11T14:15:20.816Z,20.90
2022-08-11T14:18:13.791Z,20.95
2022-08-11T14:21:00.991Z,21.04
2022-08-11T14:23:34.284Z,21.11
2022-08-11T14:26:20.049Z,21.11
2022-08-11T14:28:47.158Z,21.10
2022-08-11T14:31:17.323Z,21.14
2022-08-11T14:33:59.887Z,21.16
2022-08-11T14:36:40.233Z,21.21
2022-08-11T14:39:12.106Z,21.24
2022-08-11T14:42:09.916Z,21.22
2022-08-11T14:45:21.229Z,21.32
2022-08-11T14:47:52.260Z,21.31
2022-08-11T14:50:24.716Z,21.25
2022-08-11T14:53:21.836Z,21.24
2022-08-11T14:56:07.601Z,21.24
2022-08-11T14:58:36.520Z,21.27
2022-08-11T15:01:23.560Z,21.28
2022-08-11T15:04:04.490Z,21.29
2022-08-11T15:06:38.385Z,21.25
2022-08-11T15:09:09.018Z,21.24
2022-08-11T15:11:54.225Z,21.24
2022-08-11T15:14:39.099Z,21.25
2022-08-11T15:17:09.953Z,21.25
2022-08-11T15:20:01.250Z,21.31
2022-08-11T15:22:46.676Z,21.34
2022-08-11T15:25:13.323Z,21.33
2022-08-11T15:28:00.383Z,21.33
2022-08-11T15:30:45.893Z,21.33
2022-08-11T15:33:33.379Z,21.32
2022-08-11T15:36:19.681Z,21.31
2022-08-11T15:38:55.480Z,21.31
2022-08-11T15:41:59.091Z,21.37
2022-08-11T15:45:06.060Z,21.39
2022-08-11T15:47:44.683Z,21.37
2022-08-11T15:50:19.516Z,21.37
2022-08-11T15:52:53.273Z,21.37
2022-08-11T15:55:22.974Z,21.34
2022-08-11T15:58:09.743Z,21.32
2022-08-11T16:00:59.068Z,21.28
2022-08-11T16:04:07.840Z,21.27
2022-08-11T16:06:40.527Z,21.27
2022-08-11T16:09:18.090Z,21.23
2022-08-11T16:11:46.827Z,21.20
2022-08-11T16:14:33.679Z,21.22
2022-08-11T16:17:00.823Z,21.76
2022-08-11T16:19:34.487Z,21.62
2022-08-11T16:22:02.780Z,21.40
2022-08-11T16:27:01.886Z,21.27
2022-08-11T16:27:22.373Z,21.14
2022-08-11T16:29:52.121Z,21.05
2022-08-11T16:32:21.490Z,20.99
2022-08-11T16:35:16.902Z,20.86
2022-08-11T16:38:03.499Z,20.79
2022-08-11T16:40:31.863Z,20.72
2022-08-11T16:43:17.603Z,20.63
2022-08-11T16:46:04.056Z,20.54
2022-08-11T16:48:36.862Z,20.45
2022-08-11T16:51:09.936Z,20.45
2022-08-11T16:54:00.131Z,20.44
2022-08-11T16:56:47.427Z,20.43
2022-08-11T16:59:23.572Z,20.39
2022-08-11T17:02:10.011Z,20.40
2022-08-11T17:05:01.452Z,20.32
2022-08-11T17:07:47.884Z,20.29
2022-08-11T17:11:04.193Z,20.29
2022-08-11T17:13:38.092Z,20.29
2022-08-11T17:16:07.233Z,20.26
2022-08-11T17:18:39.604Z,20.25
2022-08-11T17:21:33.410Z,20.19
2022-08-11T17:24:09.064Z,20.17
2022-08-11T17:26:58.029Z,20.19
2022-08-11T17:29:54.921Z,20.15
2022-08-11T17:33:00.483Z,20.12
2022-08-11T17:35:40.809Z,20.09
2022-08-11T17:38:15.555Z,20.12
2022-08-11T17:41:03.817Z,20.13
2022-08-11T17:43:49.879Z,20.12
2022-08-11T17:46:36.389Z,20.12
2022-08-11T17:49:07.063Z,20.12
2022-08-11T17:52:00.584Z,20.14
2022-08-11T17:54:45.926Z,20.14
2022-08-11T17:57:32.321Z,20.11
2022-08-11T17:59:59.954Z,20.05
2022-08-11T18:02:49.850Z,20.02
2022-08-11T18:05:20.352Z,19.99
2022-08-11T18:08:08.457Z,19.96
2022-08-11T18:10:54.329Z,19.99
2022-08-11T18:13:42.241Z,19.99
2022-08-11T18:16:27.555Z,20.11
2022-08-11T18:19:13.049Z,20.06
2022-08-11T18:22:14.183Z,20.11
2022-08-11T18:25:11.094Z,20.13
2022-08-11T18:28:01.519Z,19.80
2022-08-11T18:30:47.898Z,19.63
2022-08-11T18:36:45.589Z,19.43
2022-08-11T18:39:32.229Z,19.43
2022-08-11T18:42:29.238Z,19.53
2022-08-11T18:45:19.919Z,19.79
2022-08-11T18:48:09.169Z,19.96
2022-08-11T18:51:29.548Z,20.00
2022-08-11T18:54:07.245Z,20.07
2022-08-11T18:56:52.488Z,19.96
2022-08-11T18:59:42.441Z,19.84
2022-08-11T19:02:29.116Z,19.80
2022-08-11T19:05:16.571Z,19.75
2022-08-11T19:08:06.795Z,19.75
2022-08-11T19:10:51.930Z,19.72
2022-08-11T19:13:43.315Z,19.69
2022-08-11T19:16:29.453Z,19.66
2022-08-11T19:19:14.749Z,19.62
2022-08-11T19:22:00.853Z,19.58
2022-08-11T19:24:48.828Z,19.61
2022-08-11T19:27:34.566Z,19.62
2022-08-11T19:30:19.826Z,19.61
2022-08-11T19:33:05.294Z,19.61
2022-08-11T19:35:51.601Z,19.59
2022-08-11T19:38:38.666Z,19.57
2022-08-11T19:41:57.702Z,19.55
2022-08-11T19:44:30.952Z,19.54
2022-08-11T19:47:16.652Z,19.66
2022-08-11T19:50:02.699Z,19.74
2022-08-11T19:52:48.375Z,19.81
2022-08-11T19:55:35.705Z,19.80
2022-08-11T19:58:22.249Z,19.80
2022-08-11T20:01:07.599Z,19.86
2022-08-11T20:03:52.275Z,19.84
2022-08-11T20:06:38.480Z,19.84
2022-08-11T20:09:24.890Z,19.86
2022-08-11T20:12:13.825Z,19.83
2022-08-11T20:15:01.712Z,19.81
2022-08-11T20:17:52.601Z,19.83
2022-08-11T20:20:38.667Z,19.86
2022-08-11T20:23:25.488Z,19.82
2022-08-11T20:26:30.064Z,19.72
2022-08-11T20:29:16.172Z,19.62
2022-08-11T20:32:04.947Z,19.62
2022-08-11T20:34:56.577Z,19.56
2022-08-11T20:37:48.876Z,19.60
2022-08-11T20:40:38.036Z,19.59
2022-08-11T20:44:06.771Z,19.58
2022-08-11T20:46:33.125Z,19.60
2022-08-11T20:49:20.269Z,19.58
2022-08-11T20:52:06.766Z,19.54
2022-08-11T20:54:53.091Z,19.47
2022-08-11T20:58:04.183Z,19.45
2022-08-11T21:00:44.731Z,19.39
2022-08-11T21:03:36.405Z,19.41
2022-08-11T21:06:33.014Z,19.43
2022-08-11T21:09:23.836Z,19.37
2022-08-11T21:12:14.285Z,19.36
2022-08-11T21:14:59.934Z,19.32
2022-08-11T21:18:00.576Z,19.37
2022-08-11T21:20:54.628Z,19.38
2022-08-11T21:23:42.448Z,19.37
2022-08-11T21:26:28.743Z,19.36
2022-08-11T21:29:16.132Z,19.38
2022-08-11T21:32:02.602Z,19.35
2022-08-11T21:34:49.385Z,19.31
2022-08-11T21:37:35.927Z,19.32
2022-08-11T21:40:23.304Z,19.31
2022-08-11T21:43:09.808Z,19.29
2022-08-11T21:45:57.351Z,19.32
2022-08-11T21:48:44.710Z,19.29
2022-08-11T21:51:29.679Z,19.26
2022-08-11T21:54:16.081Z,19.25
2022-08-11T21:57:02.000Z,19.24
2022-08-11T22:00:10.500Z,19.22
2022-08-11T22:03:00.243Z,19.22
2022-08-11T22:05:47.749Z,19.22
2022-08-11T22:08:33.180Z,19.21
2022-08-11T22:11:32.217Z,19.20
2022-08-11T22:14:21.662Z,19.16
2022-08-11T22:17:06.963Z,19.16
2022-08-11T22:19:54.048Z,19.16
2022-08-11T22:22:51.874Z,19.13
2022-08-11T22:25:44.108Z,19.08
2022-08-11T22:28:35.503Z,19.05
2022-08-11T22:31:22.004Z,19.07
2022-08-11T22:34:06.933Z,19.07
2022-08-11T22:36:53.252Z,19.03
2022-08-11T22:39:39.227Z,19.01
2022-08-11T22:42:43.004Z,19.02
2022-08-11T22:45:27.850Z,19.00
2022-08-11T22:48:13.892Z,18.97
2022-08-11T22:51:00.770Z,18.98
2022-08-11T22:53:57.660Z,18.97
2022-08-11T22:56:46.087Z,18.94
2022-08-11T22:59:31.826Z,18.94
2022-08-11T23:02:17.064Z,18.93
2022-08-11T23:05:02.466Z,18.89
2022-08-11T23:07:49.360Z,18.88
2022-08-11T23:10:37.756Z,18.86
2022-08-11T23:13:22.554Z,18.86
2022-08-11T23:16:07.967Z,18.86
2022-08-11T23:18:53.637Z,18.83
2022-08-11T23:21:38.933Z,18.80
2022-08-11T23:24:24.923Z,18.79
2022-08-11T23:27:10.265Z,18.78
2022-08-11T23:29:56.153Z,18.78
2022-08-11T23:32:44.328Z,18.77
2022-08-11T23:35:38.701Z,18.74
2022-08-11T23:38:26.037Z,18.72
2022-08-11T23:41:11.449Z,18.69
2022-08-11T23:43:56.863Z,18.69
2022-08-11T23:46:44.814Z,18.64
2022-08-11T23:49:29.680Z,18.65
2022-08-11T23:52:15.652Z,18.65
2022-08-11T23:55:02.490Z,18.62
2022-08-11T23:57:49.310Z,18.64
